createdAt,value
2019-02-10T00:02:39.778Z,5.10
2019-02-10T00:05:20.520Z,5.10
2019-02-10T00:08:01.163Z,5.10
2019-02-10T00:10:41.653Z,5.10
2019-02-10T00:13:22.292Z,5.00
2019-02-10T00:16:02.676Z,4.90
2019-02-10T00:18:43.803Z,4.80
2019-02-10T00:21:24.645Z,4.80
2019-02-10T00:24:05.320Z,4.70
2019-02-10T00:26:45.997Z,4.70
2019-02-10T00:29:26.927Z,4.60
2019-02-10T00:32:07.576Z,4.50
2019-02-10T00:34:48.511Z,4.40
2019-02-10T00:37:28.981Z,4.40
2019-02-10T00:40:09.999Z,4.30
2019-02-10T00:42:51.023Z,4.30
2019-02-10T00:45:31.865Z,4.30
2019-02-10T00:48:12.325Z,4.30
2019-02-10T00:50:52.943Z,4.30
2019-02-10T00:53:33.619Z,4.30
2019-02-10T00:56:14.360Z,4.30
2019-02-10T00:58:55.164Z,4.30
2019-02-10T01:01:35.751Z,4.20
2019-02-10T01:04:16.608Z,4.10
2019-02-10T01:06:57.359Z,4.00
2019-02-10T01:09:37.906Z,4.00
2019-02-10T01:12:18.582Z,4.00
2019-02-10T01:14:59.500Z,3.90
2019-02-10T01:17:40.142Z,3.90
2019-02-10T01:20:21.051Z,4.00
2019-02-10T01:23:01.634Z,4.00
2019-02-10T01:25:42.375Z,3.90
2019-02-10T01:28:22.776Z,3.90
2019-02-10T01:31:03.755Z,4.00
2019-02-10T01:33:44.471Z,3.90
2019-02-10T01:36:25.051Z,3.90
2019-02-10T01:39:07.716Z,3.90
2019-02-10T01:41:48.720Z,3.90
2019-02-10T01:44:29.695Z,3.90
2019-02-10T01:47:10.689Z,3.90
2019-02-10T01:49:51.199Z,3.90
2019-02-10T01:52:31.752Z,3.90
2019-02-10T01:55:12.852Z,4.00
2019-02-10T01:57:53.972Z,3.90
2019-02-10T02:00:34.808Z,4.00
2019-02-10T02:03:15.299Z,3.90
2019-02-10T02:05:55.799Z,3.80
2019-02-10T02:08:36.577Z,3.90
2019-02-10T02:11:17.388Z,4.00
2019-02-10T02:13:57.968Z,3.90
2019-02-10T02:16:38.557Z,3.90
2019-02-10T02:19:19.432Z,3.90
2019-02-10T02:21:59.816Z,3.80
2019-02-10T02:24:40.891Z,3.90
2019-02-10T02:27:21.735Z,3.80
2019-02-10T02:30:02.591Z,3.60
2019-02-10T02:32:43.100Z,3.60
2019-02-10T02:35:24.211Z,3.60
2019-02-10T02:38:04.914Z,3.60
2019-02-10T02:40:45.763Z,3.60
2019-02-10T02:43:26.662Z,3.60
2019-02-10T02:46:07.589Z,3.70
2019-02-10T02:48:48.191Z,3.70
2019-02-10T02:51:28.983Z,3.90
2019-02-10T02:54:10.314Z,3.90
2019-02-10T02:56:51.346Z,3.90
2019-02-10T02:59:32.280Z,3.90
2019-02-10T03:02:12.751Z,3.90
2019-02-10T03:04:53.780Z,3.90
2019-02-10T03:07:34.764Z,3.90
2019-02-10T03:10:15.515Z,3.90
2019-02-10T03:12:56.396Z,3.90
2019-02-10T03:15:37.275Z,3.90
2019-02-10T03:18:17.870Z,3.80
2019-02-10T03:20:58.416Z,3.90
2019-02-10T03:23:38.915Z,3.80
2019-02-10T03:26:19.845Z,3.90
2019-02-10T03:29:00.617Z,3.90
2019-02-10T03:31:41.477Z,4.10
2019-02-10T03:34:21.843Z,4.10
2019-02-10T03:37:02.793Z,4.10
2019-02-10T03:39:43.724Z,4.20
2019-02-10T03:42:24.556Z,4.20
2019-02-10T03:45:05.338Z,4.30
2019-02-10T03:47:45.652Z,4.30
2019-02-10T03:50:26.468Z,4.20
2019-02-10T03:53:06.971Z,4.10
2019-02-10T03:55:48.028Z,4.00
2019-02-10T03:58:28.895Z,4.10
2019-02-10T04:01:09.541Z,3.90
2019-02-10T04:03:50.056Z,3.80
2019-02-10T04:06:30.724Z,3.80
2019-02-10T04:09:11.316Z,3.90
2019-02-10T04:11:52.188Z,3.80
2019-02-10T04:14:32.928Z,3.80
2019-02-10T04:17:13.540Z,3.80
2019-02-10T04:19:53.905Z,3.90
2019-02-10T04:22:34.481Z,3.90
2019-02-10T04:25:15.019Z,4.00
2019-02-10T04:27:55.384Z,4.00
2019-02-10T04:30:36.186Z,3.90
2019-02-10T04:33:16.867Z,3.90
2019-02-10T04:35:57.569Z,4.00
2019-02-10T04:38:37.997Z,4.00
2019-02-10T04:41:18.804Z,4.00
2019-02-10T04:43:59.500Z,4.00
2019-02-10T04:46:43.194Z,3.90
2019-02-10T04:49:24.006Z,4.00
2019-02-10T04:52:04.915Z,3.90
2019-02-10T04:54:45.591Z,3.90
2019-02-10T04:57:26.261Z,3.90
2019-02-10T05:00:06.815Z,3.80
2019-02-10T05:02:47.660Z,4.00
2019-02-10T05:05:28.449Z,3.90
2019-02-10T05:08:09.233Z,3.80
2019-02-10T05:10:49.979Z,3.80
2019-02-10T05:13:30.648Z,3.90
2019-02-10T05:16:11.352Z,3.90
2019-02-10T05:18:52.046Z,4.00
2019-02-10T05:21:32.961Z,4.10
2019-02-10T05:24:13.502Z,4.30
2019-02-10T05:26:54.000Z,4.30
2019-02-10T05:29:34.652Z,4.30
2019-02-10T05:32:15.382Z,4.30
2019-02-10T05:34:56.166Z,4.30
2019-02-10T05:37:36.820Z,4.30
2019-02-10T05:40:17.633Z,4.30
2019-02-10T05:42:58.294Z,4.20
2019-02-10T05:45:38.814Z,4.20
2019-02-10T05:48:19.356Z,4.10
2019-02-10T05:51:00.293Z,4.10
2019-02-10T05:53:41.138Z,4.10
2019-02-10T05:56:21.742Z,4.00
2019-02-10T05:59:02.480Z,4.00
2019-02-10T06:01:43.204Z,4.10
2019-02-10T06:04:23.895Z,4.20
2019-02-10T06:07:04.626Z,4.10
2019-02-10T06:09:45.285Z,4.10
2019-02-10T06:12:26.060Z,4.10
2019-02-10T06:15:06.674Z,4.20
2019-02-10T06:17:47.310Z,4.30
2019-02-10T06:20:27.757Z,4.40
2019-02-10T06:23:08.668Z,4.40
2019-02-10T06:25:49.495Z,4.50
2019-02-10T06:28:30.407Z,4.60
2019-02-10T06:31:11.200Z,4.80
2019-02-10T06:33:51.664Z,4.90
2019-02-10T06:36:32.877Z,5.00
2019-02-10T06:39:13.580Z,5.20
2019-02-10T06:41:54.338Z,5.40
2019-02-10T06:44:35.187Z,5.50
2019-02-10T06:47:16.119Z,5.60
2019-02-10T06:49:56.886Z,5.60
2019-02-10T06:52:37.391Z,5.60
2019-02-10T06:55:18.627Z,5.70
2019-02-10T06:57:59.202Z,5.60
2019-02-10T07:00:44.654Z,5.60
2019-02-10T07:03:25.827Z,5.60
2019-02-10T07:06:07.051Z,5.60
2019-02-10T07:08:48.116Z,5.60
2019-02-10T07:11:28.865Z,5.70
2019-02-10T07:14:09.453Z,5.60
2019-02-10T07:16:50.420Z,5.70
2019-02-10T07:23:00.278Z,5.70
2019-02-10T07:25:41.316Z,5.80
2019-02-10T07:28:21.875Z,5.80
2019-02-10T07:31:02.539Z,5.90
2019-02-10T07:33:43.308Z,5.90
2019-02-10T07:36:23.902Z,6.00
2019-02-10T07:39:05.490Z,6.00
2019-02-10T07:41:45.895Z,6.00
2019-02-10T07:44:26.536Z,6.00
2019-02-10T07:47:07.479Z,6.00
2019-02-10T07:49:48.356Z,6.10
2019-02-10T07:52:29.055Z,6.00
2019-02-10T07:55:09.784Z,6.10
2019-02-10T07:57:50.491Z,6.10
2019-02-10T08:00:31.148Z,6.20
2019-02-10T08:03:11.776Z,6.20
2019-02-10T08:05:52.845Z,6.20
2019-02-10T08:08:33.451Z,6.30
2019-02-10T08:11:14.001Z,6.40
2019-02-10T08:13:54.679Z,6.40
2019-02-10T08:16:35.542Z,6.40
2019-02-10T08:19:15.933Z,6.50
2019-02-10T08:21:56.748Z,6.60
2019-02-10T08:24:38.016Z,6.50
2019-02-10T08:27:19.231Z,6.60
2019-02-10T08:30:00.172Z,6.70
2019-02-10T08:32:42.621Z,6.80
2019-02-10T08:35:23.758Z,6.80
2019-02-10T08:38:04.603Z,6.80
2019-02-10T08:40:45.075Z,6.80
2019-02-10T08:43:26.027Z,6.80
2019-02-10T08:46:06.746Z,6.80
2019-02-10T08:48:47.360Z,6.90
2019-02-10T08:51:28.279Z,7.00
2019-02-10T08:54:09.291Z,7.00
2019-02-10T08:56:50.141Z,7.00
2019-02-10T08:59:30.959Z,7.10
2019-02-10T09:02:11.734Z,7.10
2019-02-10T09:04:52.420Z,7.20
2019-02-10T09:07:33.390Z,7.20
2019-02-10T09:10:13.800Z,7.30
2019-02-10T09:12:54.951Z,7.40
2019-02-10T09:15:35.839Z,7.50
2019-02-10T09:18:16.551Z,7.40
2019-02-10T09:20:57.131Z,7.40
2019-02-10T09:23:37.939Z,7.40
2019-02-10T09:26:18.899Z,7.50
2019-02-10T09:28:59.291Z,7.60
2019-02-10T09:31:39.855Z,7.60
2019-02-10T09:34:20.680Z,7.60
2019-02-10T09:37:01.157Z,7.80
2019-02-10T09:39:41.969Z,7.80
2019-02-10T09:42:22.540Z,7.80
2019-02-10T09:45:03.211Z,7.90
2019-02-10T09:47:43.972Z,8.10
2019-02-10T09:50:24.648Z,8.30
2019-02-10T09:53:05.347Z,8.40
2019-02-10T09:55:45.839Z,8.50
2019-02-10T09:58:26.917Z,8.60
2019-02-10T10:01:08.007Z,8.70
2019-02-10T10:03:48.695Z,8.60
2019-02-10T10:06:29.395Z,8.70
2019-02-10T10:09:10.250Z,8.80
2019-02-10T10:11:50.963Z,8.90
2019-02-10T10:14:32.123Z,8.70
2019-02-10T10:17:12.880Z,8.80
2019-02-10T10:19:54.957Z,8.90
2019-02-10T10:22:35.440Z,9.00
2019-02-10T10:25:16.408Z,9.10
2019-02-10T10:27:57.148Z,9.10
2019-02-10T10:30:37.503Z,9.10
2019-02-10T10:33:18.103Z,9.00
2019-02-10T10:35:58.785Z,9.10
2019-02-10T10:38:39.078Z,9.10
2019-02-10T10:41:19.681Z,9.10
2019-02-10T10:44:00.548Z,9.10
2019-02-10T10:46:41.296Z,8.90
2019-02-10T10:49:22.380Z,8.70
2019-02-10T10:52:03.091Z,8.60
2019-02-10T10:54:44.040Z,8.50
2019-02-10T10:57:25.196Z,8.40
2019-02-10T11:00:06.128Z,8.20
2019-02-10T11:02:47.398Z,8.00
2019-02-10T11:05:28.371Z,8.00
2019-02-10T11:08:09.028Z,7.90
2019-02-10T11:10:49.558Z,7.90
2019-02-10T11:13:30.434Z,7.80
2019-02-10T11:16:11.647Z,7.80
2019-02-10T11:18:52.312Z,7.70
2019-02-10T11:21:32.950Z,7.70
2019-02-10T11:24:13.572Z,7.60
2019-02-10T11:26:54.052Z,7.60
2019-02-10T11:29:34.599Z,7.70
2019-02-10T11:32:15.212Z,7.70
2019-02-10T11:34:56.108Z,7.80
2019-02-10T11:37:36.471Z,7.80
2019-02-10T11:40:17.240Z,7.60
2019-02-10T11:43:00.014Z,7.70
2019-02-10T11:45:41.209Z,7.70
2019-02-10T11:48:22.404Z,7.60
2019-02-10T11:51:03.195Z,7.60
2019-02-10T11:53:43.908Z,7.50
2019-02-10T11:56:24.269Z,7.60
2019-02-10T11:59:05.174Z,7.70
2019-02-10T12:01:45.519Z,7.80
2019-02-10T12:04:26.488Z,7.80
2019-02-10T12:07:07.268Z,7.90
2019-02-10T12:09:51.701Z,8.10
2019-02-10T12:12:31.163Z,8.10
2019-02-10T12:15:12.059Z,8.10
2019-02-10T12:17:52.780Z,8.20
2019-02-10T12:20:33.503Z,8.20
2019-02-10T12:23:13.952Z,8.10
2019-02-10T12:25:55.062Z,8.20
2019-02-10T12:28:35.771Z,8.40
2019-02-10T12:31:16.771Z,8.40
2019-02-10T12:33:57.109Z,8.40
2019-02-10T12:36:37.663Z,8.50
2019-02-10T12:39:18.649Z,8.40
2019-02-10T12:41:59.188Z,8.50
2019-02-10T12:44:39.787Z,8.50
2019-02-10T12:47:20.418Z,8.40
2019-02-10T12:50:02.014Z,8.40
2019-02-10T12:52:42.847Z,8.50
2019-02-10T12:55:23.602Z,8.40
2019-02-10T12:58:04.532Z,8.50
2019-02-10T13:00:45.124Z,8.60
2019-02-10T13:03:25.496Z,8.80
2019-02-10T13:06:06.325Z,8.80
2019-02-10T13:08:47.568Z,8.90
2019-02-10T13:11:28.428Z,8.90
2019-02-10T13:14:09.116Z,9.00
2019-02-10T13:16:49.945Z,9.00
2019-02-10T13:19:30.717Z,9.00
2019-02-10T13:22:11.134Z,9.00
2019-02-10T13:24:52.027Z,8.90
2019-02-10T13:27:32.737Z,9.00
2019-02-10T13:30:13.460Z,8.80
2019-02-10T13:32:54.191Z,8.80
2019-02-10T13:35:35.024Z,8.80
2019-02-10T13:38:15.506Z,8.80
2019-02-10T13:40:56.327Z,8.80
2019-02-10T13:43:36.676Z,8.80
2019-02-10T13:46:17.737Z,8.80
2019-02-10T13:48:58.244Z,8.60
2019-02-10T13:51:41.687Z,8.80
2019-02-10T13:54:22.171Z,9.00
2019-02-10T13:57:03.130Z,9.10
2019-02-10T13:59:43.969Z,9.10
2019-02-10T14:02:24.492Z,9.00
2019-02-10T14:05:05.468Z,8.90
2019-02-10T14:07:46.060Z,8.90
2019-02-10T14:10:26.722Z,8.90
2019-02-10T14:13:07.171Z,8.90
2019-02-10T14:15:47.667Z,8.90
2019-02-10T14:18:28.953Z,8.90
2019-02-10T14:21:09.636Z,8.80
2019-02-10T14:23:50.403Z,8.70
2019-02-10T14:26:31.480Z,8.60
2019-02-10T14:29:12.212Z,8.60
2019-02-10T14:31:53.236Z,8.60
2019-02-10T14:34:33.725Z,8.60
2019-02-10T14:37:14.370Z,8.50
2019-02-10T14:39:54.951Z,8.60
2019-02-10T14:42:35.662Z,8.30
2019-02-10T14:45:16.388Z,8.20
2019-02-10T14:47:56.999Z,8.20
2019-02-10T14:50:37.921Z,8.30
2019-02-10T14:53:18.865Z,8.30
2019-02-10T14:55:59.369Z,8.30
2019-02-10T14:58:43.161Z,8.20
2019-02-10T15:01:22.887Z,8.20
2019-02-10T15:04:03.242Z,8.20
2019-02-10T15:06:43.634Z,8.30
2019-02-10T15:09:24.237Z,8.40
2019-02-10T15:12:05.110Z,8.50
2019-02-10T15:14:46.284Z,8.50
2019-02-10T15:17:27.014Z,8.50
2019-02-10T15:20:07.715Z,8.40
2019-02-10T15:22:48.404Z,8.40
2019-02-10T15:25:29.360Z,8.40
2019-02-10T15:28:09.755Z,8.50
2019-02-10T15:30:50.987Z,8.40
2019-02-10T15:33:31.659Z,8.40
2019-02-10T15:36:12.396Z,8.40
2019-02-10T15:38:52.831Z,8.50
2019-02-10T15:41:33.504Z,8.60
2019-02-10T15:44:13.951Z,8.60
2019-02-10T15:46:54.603Z,8.70
2019-02-10T15:49:34.935Z,8.80
2019-02-10T15:52:16.003Z,8.80
2019-02-10T15:54:56.747Z,8.70
2019-02-10T15:57:37.524Z,8.70
2019-02-10T16:00:18.029Z,8.60
2019-02-10T16:02:58.673Z,8.50
2019-02-10T16:05:39.366Z,8.60
2019-02-10T16:08:20.141Z,8.50
2019-02-10T16:11:00.831Z,8.40
2019-02-10T16:13:41.783Z,8.40
2019-02-10T16:16:22.523Z,8.30
2019-02-10T16:19:03.240Z,8.20
2019-02-10T16:21:43.959Z,8.10
2019-02-10T16:24:25.111Z,7.90
2019-02-10T16:27:06.038Z,7.80
2019-02-10T16:29:46.729Z,7.80
2019-02-10T16:32:27.672Z,7.70
2019-02-10T16:35:08.347Z,7.70
2019-02-10T16:37:49.271Z,7.70
2019-02-10T16:40:30.057Z,7.70
2019-02-10T16:43:10.376Z,7.60
2019-02-10T16:45:50.967Z,7.50
2019-02-10T16:48:32.195Z,7.50
2019-02-10T16:51:13.264Z,7.60
2019-02-10T16:53:54.150Z,7.50
2019-02-10T16:56:34.739Z,7.40
2019-02-10T16:59:15.337Z,7.40
2019-02-10T17:01:55.977Z,7.50
2019-02-10T17:04:36.657Z,7.60
2019-02-10T17:07:17.716Z,7.50
2019-02-10T17:09:58.151Z,7.50
2019-02-10T17:12:39.204Z,7.50
2019-02-10T17:15:19.647Z,7.50
2019-02-10T17:18:00.259Z,7.60
2019-02-10T17:20:40.947Z,7.70
2019-02-10T17:23:21.788Z,7.60
2019-02-10T17:26:02.183Z,7.60
2019-02-10T17:28:42.862Z,7.60
2019-02-10T17:31:23.836Z,7.50
2019-02-10T17:34:04.434Z,7.50
2019-02-10T17:36:45.459Z,7.60
2019-02-10T17:39:26.324Z,7.60
2019-02-10T17:42:07.276Z,7.70
2019-02-10T17:44:48.144Z,7.70
2019-02-10T17:47:28.688Z,7.60
2019-02-10T17:50:09.408Z,7.60
2019-02-10T17:52:50.309Z,7.60
2019-02-10T17:55:31.143Z,7.70
2019-02-10T17:58:12.112Z,7.70
2019-02-10T18:00:53.045Z,7.80
2019-02-10T18:03:33.654Z,7.80
2019-02-10T18:06:17.299Z,7.70
2019-02-10T18:08:58.455Z,7.80
2019-02-10T18:11:39.247Z,7.80
2019-02-10T18:14:21.693Z,7.80
2019-02-10T18:17:04.329Z,7.80
2019-02-10T18:19:46.531Z,7.80
2019-02-10T18:22:29.215Z,7.70
2019-02-10T18:28:37.028Z,7.60
2019-02-10T18:34:29.489Z,7.50
2019-02-10T18:37:14.637Z,7.50
2019-02-10T18:43:22.164Z,7.40
2019-02-10T18:52:32.996Z,7.30
2019-02-10T18:58:54.237Z,7.20
2019-02-10T19:01:57.388Z,7.10
2019-02-10T19:08:13.003Z,7.00
2019-02-10T19:14:28.643Z,7.00
2019-02-10T19:17:35.765Z,7.00
2019-02-10T19:20:42.862Z,6.90
2019-02-10T19:26:48.481Z,7.00
2019-02-10T19:29:30.951Z,6.90
2019-02-10T19:32:13.400Z,7.00
2019-02-10T19:35:13.665Z,7.00
2019-02-10T19:41:06.671Z,7.00
2019-02-10T19:46:43.483Z,6.90
2019-02-10T19:52:20.630Z,6.80
2019-02-10T19:55:03.191Z,6.80
2019-02-10T19:58:03.628Z,6.80
2019-02-10T20:00:45.769Z,6.80
2019-02-10T20:03:47.244Z,6.80
2019-02-10T20:06:30.071Z,6.80
2019-02-10T20:09:29.999Z,6.90
2019-02-10T20:12:15.156Z,6.80
2019-02-10T20:15:00.215Z,6.70
2019-02-10T20:20:56.344Z,6.70
2019-02-10T20:23:38.969Z,6.70
2019-02-10T20:26:21.702Z,6.70
2019-02-10T20:29:07.200Z,6.60
2019-02-10T20:35:00.595Z,6.50
2019-02-10T20:40:36.648Z,6.50
2019-02-10T20:46:32.511Z,6.40
2019-02-10T20:52:09.726Z,6.10
2019-02-10T20:58:05.476Z,5.90
2019-02-10T21:04:10.075Z,5.80
2019-02-10T21:09:53.691Z,5.90
2019-02-10T21:13:00.812Z,5.80
2019-02-10T21:16:07.908Z,5.70
2019-02-10T21:19:15.028Z,5.70
2019-02-10T21:22:22.125Z,5.60
2019-02-10T21:27:59.783Z,5.40
2019-02-10T21:36:41.059Z,5.20
2019-02-10T21:39:23.728Z,5.20
2019-02-10T21:42:06.425Z,5.10
2019-02-10T21:44:49.295Z,5.20
2019-02-10T21:47:35.131Z,5.20
2019-02-10T21:50:15.964Z,5.20
2019-02-10T21:52:56.523Z,5.30
2019-02-10T21:55:37.000Z,5.30
2019-02-10T21:58:17.678Z,5.20
2019-02-10T22:00:58.185Z,5.20
2019-02-10T22:03:39.218Z,5.10
2019-02-10T22:06:19.975Z,5.10
2019-02-10T22:09:00.964Z,5.10
2019-02-10T22:11:41.408Z,5.00
2019-02-10T22:14:22.048Z,5.10
2019-02-10T22:17:02.578Z,5.00
2019-02-10T22:19:43.355Z,5.00
2019-02-10T22:22:23.966Z,5.00
2019-02-10T22:25:04.914Z,4.90
2019-02-10T22:27:45.758Z,4.90
2019-02-10T22:30:26.434Z,4.80
2019-02-10T22:33:06.750Z,4.80
2019-02-10T22:35:47.316Z,4.70
2019-02-10T22:38:28.100Z,4.70
2019-02-10T22:41:09.016Z,4.70
2019-02-10T22:43:49.669Z,4.70
2019-02-10T22:46:30.215Z,4.70
2019-02-10T22:49:11.220Z,4.80
2019-02-10T22:51:51.813Z,4.70
2019-02-10T22:54:32.611Z,4.70
2019-02-10T22:57:13.004Z,4.70
2019-02-10T22:59:53.814Z,4.80
2019-02-10T23:02:34.711Z,4.90
2019-02-10T23:05:15.354Z,4.90
2019-02-10T23:07:55.781Z,4.90
2019-02-10T23:10:36.801Z,4.80
2019-02-10T23:13:17.416Z,4.80
2019-02-10T23:15:58.036Z,4.90
2019-02-10T23:18:38.649Z,4.80
2019-02-10T23:21:19.283Z,4.90
2019-02-10T23:24:00.560Z,4.90
2019-02-10T23:26:40.916Z,5.00
2019-02-10T23:29:21.795Z,4.90
2019-02-10T23:32:02.164Z,4.90
2019-02-10T23:34:42.917Z,4.90
2019-02-10T23:37:23.725Z,5.00
2019-02-10T23:40:04.395Z,4.90
2019-02-10T23:42:44.739Z,5.00
2019-02-10T23:45:25.475Z,5.00
2019-02-10T23:48:06.684Z,5.00
2019-02-10T23:50:47.668Z,5.00
2019-02-10T23:53:28.545Z,5.00
2019-02-10T23:56:09.153Z,4.90
2019-02-10T23:58:50.226Z,4.90
